San Benito, Texas
Current Conditions -  °F | °C
As of 6:52 PM on Monday 24 Nov 2014 (Local Time) from KHRL Reporting Station
Clear Clear  
Wind Chill: 55°   Ceiling: Unl
Heat Index: 55°   Visibility: 10mi
Dew Point: 49°   Wind: 6mph
Humidity: 80%   Direction: 10°N
Pressure: 30.06"   Gusts: NA
Location:  26.13°N, 97.63°W
Report Text: KHRL 250052Z 01005KT 10SM CLR 13/09 A3006 RMK AO2 SLP178 T01280094
Loading
Personal Weather Stations






























Interactive Weather Map New forecast layout! Learn more

10-Day Weather Forecast

Advertisements
Track Severe Weather on mobile